createdAt,value
2023-01-12T00:02:24.936Z,63.82
2023-01-12T00:04:53.055Z,64.07
2023-01-12T00:07:21.101Z,64.03
2023-01-12T00:09:49.043Z,64.42
2023-01-12T00:12:17.007Z,64.34
2023-01-12T00:14:44.697Z,64.30
2023-01-12T00:17:16.677Z,63.96
2023-01-12T00:19:44.643Z,63.49
2023-01-12T00:22:12.620Z,63.81
2023-01-12T00:24:48.144Z,63.83
2023-01-12T00:27:19.619Z,62.52
2023-01-12T00:29:49.220Z,63.31
2023-01-12T00:32:20.221Z,64.19
2023-01-12T00:34:48.942Z,64.01
2023-01-12T00:37:19.457Z,64.12
2023-01-12T00:40:00.894Z,63.93
2023-01-12T00:42:48.301Z,64.23
2023-01-12T00:45:22.173Z,63.36
2023-01-12T00:47:50.814Z,62.55
2023-01-12T00:50:19.625Z,64.12
2023-01-12T00:52:47.506Z,64.77
2023-01-12T00:55:16.327Z,64.73
2023-01-12T00:57:44.444Z,64.72
2023-01-12T01:00:14.037Z,64.28
2023-01-12T01:02:42.343Z,64.62
2023-01-12T01:05:10.350Z,64.18
2023-01-12T01:07:38.587Z,64.58
2023-01-12T01:10:07.296Z,64.74
2023-01-12T01:12:34.764Z,64.94
2023-01-12T01:15:04.403Z,64.73
2023-01-12T01:17:32.586Z,64.99
2023-01-12T01:20:01.256Z,64.65
2023-01-12T01:22:28.781Z,64.36
2023-01-12T01:24:56.686Z,64.62
2023-01-12T01:27:24.150Z,64.85
2023-01-12T01:29:51.819Z,65.16
2023-01-12T01:32:19.693Z,65.23
2023-01-12T01:34:48.210Z,65.14
2023-01-12T01:37:16.090Z,64.83
2023-01-12T01:39:45.228Z,64.94
2023-01-12T01:42:28.272Z,65.51
2023-01-12T01:45:06.106Z,65.40
2023-01-12T01:47:40.180Z,65.43
2023-01-12T01:50:23.771Z,65.03
2023-01-12T01:52:54.168Z,62.87
2023-01-12T01:55:36.322Z,62.48
2023-01-12T01:58:20.246Z,64.55
2023-01-12T02:00:48.719Z,64.25
2023-01-12T02:03:16.992Z,65.74
2023-01-12T02:05:47.373Z,65.87
2023-01-12T02:08:22.483Z,65.74
2023-01-12T02:10:51.823Z,65.70
2023-01-12T02:13:58.834Z,65.66
2023-01-12T02:16:29.237Z,65.15
2023-01-12T02:19:36.984Z,65.31
2023-01-12T02:22:23.403Z,65.13
2023-01-12T02:25:20.295Z,65.50
2023-01-12T02:28:00.836Z,65.45
2023-01-12T02:30:39.401Z,65.78
2023-01-12T02:33:18.556Z,65.65
2023-01-12T02:36:05.817Z,65.81
2023-01-12T02:38:43.663Z,66.05
2023-01-12T02:41:45.777Z,65.99
2023-01-12T02:44:40.170Z,65.69
2023-01-12T02:47:14.084Z,65.90
2023-01-12T02:49:47.200Z,66.00
2023-01-12T02:52:17.868Z,65.38
2023-01-12T02:54:48.295Z,65.54
2023-01-12T02:57:16.764Z,65.04
2023-01-12T02:59:45.796Z,64.93
2023-01-12T03:02:16.771Z,65.17
2023-01-12T03:04:45.000Z,64.54
2023-01-12T03:07:42.210Z,63.75
2023-01-12T03:10:40.647Z,64.42
2023-01-12T03:13:11.560Z,63.90
2023-01-12T03:15:47.943Z,65.09
2023-01-12T03:18:18.792Z,65.25
2023-01-12T03:21:00.923Z,65.48
2023-01-12T03:23:33.623Z,65.27
2023-01-12T03:26:03.499Z,65.63
2023-01-12T03:28:34.528Z,65.42
2023-01-12T03:31:09.226Z,65.53
2023-01-12T03:33:40.187Z,65.49
2023-01-12T03:36:08.269Z,65.56
2023-01-12T03:38:56.357Z,66.31
2023-01-12T03:41:58.018Z,65.60
2023-01-12T03:44:53.961Z,65.51
2023-01-12T03:47:25.026Z,65.55
2023-01-12T03:50:10.837Z,63.94
2023-01-12T03:52:40.163Z,63.70
2023-01-12T03:55:12.410Z,63.81
2023-01-12T03:57:40.146Z,64.04
2023-01-12T04:00:11.809Z,65.16
2023-01-12T04:02:45.579Z,65.80
2023-01-12T04:05:14.500Z,65.74
2023-01-12T04:07:42.738Z,65.95
2023-01-12T04:10:10.871Z,66.29
2023-01-12T04:12:38.429Z,66.01
2023-01-12T04:15:07.373Z,66.10
2023-01-12T04:17:35.619Z,66.18
2023-01-12T04:20:05.129Z,66.17
2023-01-12T04:22:45.652Z,66.26
2023-01-12T04:25:19.537Z,65.54
2023-01-12T04:27:51.605Z,64.66
2023-01-12T04:30:23.621Z,64.94
2023-01-12T04:32:51.638Z,65.70
2023-01-12T04:35:19.202Z,65.39
2023-01-12T04:37:47.636Z,65.55
2023-01-12T04:40:16.987Z,65.82
2023-01-12T04:43:01.955Z,66.03
2023-01-12T04:45:33.899Z,65.70
2023-01-12T04:48:06.451Z,65.81
2023-01-12T04:50:34.667Z,65.44
2023-01-12T04:53:03.954Z,65.17
2023-01-12T04:55:31.876Z,65.77
2023-01-12T04:58:01.112Z,66.17
2023-01-12T05:00:29.598Z,65.62
2023-01-12T05:03:02.105Z,65.45
2023-01-12T05:05:31.862Z,65.62
2023-01-12T05:08:19.432Z,65.45
2023-01-12T05:10:51.438Z,65.73
2023-01-12T05:13:20.291Z,66.25
2023-01-12T05:15:49.263Z,66.37
2023-01-12T05:18:18.608Z,65.82
2023-01-12T05:20:46.489Z,65.94
2023-01-12T05:23:14.556Z,66.34
2023-01-12T05:25:47.908Z,66.08
2023-01-12T05:28:20.825Z,65.89
2023-01-12T05:30:55.514Z,65.97
2023-01-12T05:33:25.234Z,65.64
2023-01-12T05:35:52.810Z,66.01
2023-01-12T05:38:20.954Z,65.68
2023-01-12T05:40:49.232Z,65.71
2023-01-12T05:43:35.496Z,65.52
2023-01-12T05:46:05.335Z,65.58
2023-01-12T05:48:34.337Z,65.71
2023-01-12T05:51:07.762Z,65.50
2023-01-12T05:53:43.517Z,65.48
2023-01-12T05:56:27.601Z,65.50
2023-01-12T05:58:58.792Z,65.43
2023-01-12T06:01:29.977Z,64.83
2023-01-12T06:04:00.101Z,65.14
2023-01-12T06:06:31.838Z,64.72
2023-01-12T06:09:01.489Z,64.80
2023-01-12T06:11:51.785Z,64.46
2023-01-12T06:14:22.937Z,64.54
2023-01-12T06:16:52.027Z,64.57
2023-01-12T06:19:19.994Z,64.17
2023-01-12T06:21:50.122Z,64.54
2023-01-12T06:24:18.837Z,64.57
2023-01-12T06:26:46.840Z,64.83
2023-01-12T06:29:14.846Z,64.89
2023-01-12T06:31:43.917Z,65.19
2023-01-12T06:34:14.294Z,65.25
2023-01-12T06:36:41.966Z,65.22
2023-01-12T06:39:11.898Z,64.82
2023-01-12T06:41:59.527Z,64.98
2023-01-12T06:44:27.717Z,64.88
2023-01-12T06:46:56.184Z,65.26
2023-01-12T06:49:24.144Z,65.25
2023-01-12T06:51:52.130Z,65.83
2023-01-12T06:54:20.539Z,65.27
2023-01-12T06:56:49.062Z,65.83
2023-01-12T06:59:18.512Z,65.50
2023-01-12T07:01:46.874Z,65.90
2023-01-12T07:04:14.954Z,65.29
2023-01-12T07:06:42.972Z,65.53
2023-01-12T07:09:11.086Z,65.28
2023-01-12T07:11:39.996Z,65.92
2023-01-12T07:14:09.721Z,65.33
2023-01-12T07:16:38.117Z,65.71
2023-01-12T07:19:07.717Z,64.88
2023-01-12T07:21:36.041Z,64.78
2023-01-12T07:24:07.459Z,65.02
2023-01-12T07:26:37.977Z,64.92
2023-01-12T07:29:11.397Z,64.12
2023-01-12T07:31:41.604Z,64.43
2023-01-12T07:34:10.101Z,64.88
2023-01-12T07:36:46.522Z,64.37
2023-01-12T07:39:15.136Z,64.76
2023-01-12T07:42:02.499Z,65.13
2023-01-12T07:44:36.576Z,64.86
2023-01-12T07:47:04.925Z,65.12
2023-01-12T07:49:33.587Z,65.13
2023-01-12T07:52:11.534Z,64.77
2023-01-12T07:54:45.671Z,64.97
2023-01-12T07:57:13.717Z,64.85
2023-01-12T07:59:41.799Z,64.64
2023-01-12T08:02:16.638Z,64.42
2023-01-12T08:04:48.574Z,64.37
2023-01-12T08:07:17.689Z,64.43
2023-01-12T08:09:46.725Z,64.15
2023-01-12T08:12:14.498Z,64.26
2023-01-12T08:14:42.976Z,64.34
2023-01-12T08:17:18.827Z,64.25
2023-01-12T08:19:55.854Z,64.52
2023-01-12T08:22:28.915Z,64.27
2023-01-12T08:25:01.433Z,63.69
2023-01-12T08:27:31.244Z,63.99
2023-01-12T08:30:11.571Z,63.70
2023-01-12T08:32:39.824Z,63.89
2023-01-12T08:35:07.852Z,64.10
2023-01-12T08:37:36.561Z,64.34
2023-01-12T08:40:09.463Z,64.30
2023-01-12T08:42:37.810Z,64.10
2023-01-12T08:45:09.828Z,63.19
2023-01-12T08:47:41.563Z,64.16
2023-01-12T08:50:11.525Z,64.72
2023-01-12T08:52:39.212Z,63.42
2023-01-12T08:55:07.761Z,63.63
2023-01-12T08:57:36.763Z,63.57
2023-01-12T09:00:06.764Z,64.10
2023-01-12T09:02:36.693Z,64.30
2023-01-12T09:05:06.694Z,64.41
2023-01-12T09:07:34.953Z,66.12
2023-01-12T09:10:11.794Z,65.12
2023-01-12T09:12:41.759Z,64.82
2023-01-12T09:15:10.868Z,64.18
2023-01-12T09:17:40.101Z,64.82
2023-01-12T09:20:08.304Z,65.08
2023-01-12T09:22:37.038Z,64.43
2023-01-12T09:25:05.081Z,65.38
2023-01-12T09:27:33.341Z,65.27
2023-01-12T09:30:01.246Z,64.38
2023-01-12T09:32:36.693Z,65.77
2023-01-12T09:35:07.483Z,65.87
2023-01-12T09:37:35.482Z,64.33
2023-01-12T09:40:04.914Z,63.56
2023-01-12T09:42:52.544Z,64.30
2023-01-12T09:45:45.506Z,64.06
2023-01-12T09:48:22.743Z,65.35
2023-01-12T09:51:11.801Z,65.25
2023-01-12T09:53:43.179Z,65.47
2023-01-12T09:56:15.451Z,64.80
2023-01-12T09:59:11.832Z,65.12
2023-01-12T10:01:40.339Z,63.90
2023-01-12T10:04:09.905Z,62.31
2023-01-12T10:06:39.812Z,63.69
2023-01-12T10:09:14.005Z,63.29
2023-01-12T10:11:55.086Z,62.42
2023-01-12T10:14:26.723Z,61.80
2023-01-12T10:17:00.323Z,62.88
2023-01-12T10:19:36.309Z,62.50
2023-01-12T10:22:39.551Z,61.55
2023-01-12T10:25:27.330Z,61.75
2023-01-12T10:27:57.899Z,62.83
2023-01-12T10:30:37.733Z,64.13
2023-01-12T10:33:19.770Z,62.80
2023-01-12T10:35:52.658Z,62.77
2023-01-12T10:38:42.029Z,62.35
2023-01-12T10:41:32.556Z,62.84
2023-01-12T10:44:01.530Z,62.34
2023-01-12T10:46:32.888Z,64.22
2023-01-12T10:49:21.974Z,64.15
2023-01-12T10:51:59.503Z,63.93
2023-01-12T10:54:33.742Z,61.98
2023-01-12T10:57:14.580Z,61.51
2023-01-12T10:59:51.952Z,61.74
2023-01-12T11:02:20.621Z,62.21
2023-01-12T11:04:52.469Z,61.78
2023-01-12T11:07:31.653Z,62.75
2023-01-12T11:10:26.426Z,62.89
2023-01-12T11:13:03.818Z,62.50
2023-01-12T11:15:38.987Z,62.08
2023-01-12T11:18:39.687Z,62.88
2023-01-12T11:21:13.706Z,63.31
2023-01-12T11:23:44.519Z,61.50
2023-01-12T11:26:23.930Z,62.44
2023-01-12T11:28:54.876Z,63.12
2023-01-12T11:31:29.744Z,62.34
2023-01-12T11:34:17.077Z,61.90
2023-01-12T11:36:48.162Z,62.41
2023-01-12T11:39:20.643Z,62.14
2023-01-12T11:42:13.881Z,63.16
2023-01-12T11:44:58.878Z,62.21
2023-01-12T11:47:31.521Z,62.53
2023-01-12T11:50:03.054Z,62.61
2023-01-12T11:52:31.295Z,62.99
2023-01-12T11:54:59.114Z,63.48
2023-01-12T11:57:49.684Z,63.35
2023-01-12T12:00:23.781Z,63.08
2023-01-12T12:03:01.411Z,61.83
2023-01-12T12:05:41.322Z,62.15
2023-01-12T12:08:28.703Z,62.04
2023-01-12T12:10:59.767Z,61.76
2023-01-12T12:13:31.123Z,61.64
2023-01-12T12:16:39.838Z,61.97
2023-01-12T12:19:35.273Z,62.28
2023-01-12T12:22:41.868Z,62.61
2023-01-12T12:25:23.113Z,62.47
2023-01-12T12:28:18.708Z,61.53
2023-01-12T12:31:23.146Z,61.38
2023-01-12T12:34:00.874Z,61.41
2023-01-12T12:36:39.788Z,61.04
2023-01-12T12:39:30.152Z,60.50
2023-01-12T12:42:33.045Z,60.76
2023-01-12T12:45:18.538Z,60.98
2023-01-12T12:47:56.831Z,61.10
2023-01-12T12:50:50.193Z,60.91
2023-01-12T12:53:26.986Z,62.20
2023-01-12T12:56:05.555Z,61.60
2023-01-12T12:58:53.544Z,61.36
2023-01-12T13:04:02.680Z,60.73
2023-01-12T13:06:49.780Z,58.97
2023-01-12T13:09:21.892Z,58.89
2023-01-12T13:11:59.848Z,60.46
2023-01-12T13:14:39.913Z,61.29
2023-01-12T13:17:23.510Z,61.16
2023-01-12T13:20:02.240Z,61.03
2023-01-12T13:22:32.714Z,60.38
2023-01-12T13:25:20.712Z,59.77
2023-01-12T13:27:58.948Z,59.81
2023-01-12T13:30:35.539Z,60.03
2023-01-12T13:33:23.067Z,59.91
2023-01-12T13:35:51.236Z,59.69
2023-01-12T13:38:37.727Z,59.08
2023-01-12T13:41:17.863Z,59.01
2023-01-12T13:43:48.788Z,59.35
2023-01-12T13:46:25.152Z,58.85
2023-01-12T13:49:23.546Z,58.61
2023-01-12T13:51:57.816Z,58.67
2023-01-12T13:54:30.115Z,59.23
2023-01-12T13:57:10.835Z,58.26
2023-01-12T13:59:58.536Z,58.08
2023-01-12T14:02:32.986Z,57.63
2023-01-12T14:05:23.202Z,57.69
2023-01-12T14:08:17.061Z,56.91
2023-01-12T14:11:00.207Z,57.34
2023-01-12T14:13:50.964Z,57.46
2023-01-12T14:17:05.336Z,57.14
2023-01-12T14:19:33.511Z,57.71
2023-01-12T14:22:04.509Z,57.34
2023-01-12T14:24:36.674Z,57.48
2023-01-12T14:27:28.346Z,57.70
2023-01-12T14:30:02.588Z,58.13
2023-01-12T14:35:17.564Z,58.08
2023-01-12T14:38:00.063Z,58.51
2023-01-12T14:40:32.298Z,58.64
2023-01-12T14:43:23.493Z,58.98
2023-01-12T14:46:16.521Z,59.08
2023-01-12T14:48:59.658Z,59.53
2023-01-12T14:51:40.517Z,59.90
2023-01-12T14:54:09.507Z,60.07
2023-01-12T14:56:39.460Z,60.15
2023-01-12T14:59:22.541Z,60.78
2023-01-12T15:01:54.791Z,60.95
2023-01-12T15:04:32.635Z,60.84
2023-01-12T15:07:13.514Z,60.40
2023-01-12T15:09:56.470Z,60.13
2023-01-12T15:12:31.935Z,60.07
2023-01-12T15:15:17.345Z,59.94
2023-01-12T15:17:53.518Z,59.66
2023-01-12T15:23:56.162Z,59.96
2023-01-12T15:26:27.565Z,59.69
2023-01-12T15:29:02.493Z,59.80
2023-01-12T15:31:40.674Z,59.62
2023-01-12T15:34:10.724Z,59.80
2023-01-12T15:36:39.692Z,60.02
2023-01-12T15:39:19.555Z,59.89
2023-01-12T15:42:07.370Z,59.76
2023-01-12T15:44:39.547Z,60.01
2023-01-12T15:47:18.502Z,59.95
2023-01-12T15:49:53.529Z,60.46
2023-01-12T15:52:25.322Z,60.14
2023-01-12T15:54:58.745Z,60.31
2023-01-12T15:57:35.478Z,60.18
2023-01-12T16:00:08.877Z,60.27
2023-01-12T16:02:42.650Z,60.07
2023-01-12T16:05:11.744Z,60.11
2023-01-12T16:07:40.197Z,60.42
2023-01-12T16:10:12.921Z,60.13
2023-01-12T16:12:47.979Z,60.53
2023-01-12T16:18:00.524Z,60.43
2023-01-12T16:20:30.744Z,60.70
2023-01-12T16:23:04.954Z,61.07
2023-01-12T16:25:35.681Z,60.75
2023-01-12T16:28:11.683Z,60.55
2023-01-12T16:30:54.514Z,60.62
2023-01-12T16:36:17.597Z,61.07
2023-01-12T16:38:50.997Z,61.13
2023-01-12T16:41:22.593Z,60.93
2023-01-12T16:43:55.070Z,61.45
2023-01-12T16:46:28.270Z,61.26
2023-01-12T16:49:11.452Z,61.25
2023-01-12T16:51:42.151Z,61.00
2023-01-12T16:54:20.153Z,61.11
2023-01-12T16:56:52.381Z,60.96
2023-01-12T16:59:25.607Z,60.95
2023-01-12T17:07:28.968Z,60.37
2023-01-12T17:10:00.716Z,61.17
2023-01-12T17:12:32.854Z,61.00
2023-01-12T17:15:04.224Z,60.72
2023-01-12T17:20:10.697Z,60.97
2023-01-12T17:22:48.495Z,60.96
2023-01-12T17:25:20.935Z,60.84
2023-01-12T17:27:52.997Z,60.80
2023-01-12T17:30:23.758Z,60.99
2023-01-12T17:32:57.747Z,61.33
2023-01-12T17:35:28.532Z,61.84
2023-01-12T17:37:59.911Z,61.48
2023-01-12T17:40:34.487Z,61.94
2023-01-12T17:43:15.100Z,62.22
2023-01-12T17:45:47.833Z,62.02
2023-01-12T17:48:22.538Z,61.87
2023-01-12T17:53:34.212Z,61.80
2023-01-12T17:56:09.847Z,62.40
2023-01-12T17:58:56.598Z,62.62
2023-01-12T18:01:34.055Z,62.90
2023-01-12T18:04:08.416Z,62.59
2023-01-12T18:11:56.435Z,62.48
2023-01-12T18:14:40.494Z,62.61
2023-01-12T18:17:16.724Z,61.89
2023-01-12T18:19:53.705Z,62.79
2023-01-12T18:22:25.880Z,62.78
2023-01-12T18:24:54.119Z,62.71
2023-01-12T18:27:23.812Z,62.61
2023-01-12T18:30:15.699Z,62.31
2023-01-12T18:32:56.433Z,62.37
2023-01-12T18:35:28.412Z,62.56
2023-01-12T18:37:58.723Z,62.30
2023-01-12T18:40:35.567Z,62.50
2023-01-12T18:45:50.472Z,62.41
2023-01-12T18:48:26.470Z,62.46
2023-01-12T18:51:26.621Z,62.97
2023-01-12T18:53:55.417Z,62.82
2023-01-12T18:56:33.570Z,62.73
2023-01-12T18:59:04.267Z,62.54
2023-01-12T19:04:18.493Z,62.22
2023-01-12T19:06:59.235Z,62.04
2023-01-12T19:09:37.629Z,62.50
2023-01-12T19:12:07.472Z,63.02
2023-01-12T19:17:46.491Z,62.81
2023-01-12T19:20:32.023Z,62.72
2023-01-12T19:23:30.198Z,62.63
2023-01-12T19:26:41.136Z,62.86
2023-01-12T19:29:10.552Z,63.02
2023-01-12T19:31:44.669Z,63.28
2023-01-12T19:34:14.420Z,63.23
2023-01-12T19:36:44.504Z,63.16
2023-01-12T19:39:30.463Z,63.00
2023-01-12T19:42:18.500Z,62.72
2023-01-12T19:44:47.143Z,62.60
2023-01-12T19:47:17.778Z,63.08
2023-01-12T19:49:50.583Z,63.08
2023-01-12T19:52:23.635Z,63.54
2023-01-12T19:57:48.889Z,62.87
2023-01-12T20:00:20.481Z,62.95
2023-01-12T20:05:33.449Z,62.70
2023-01-12T20:10:42.587Z,62.85
2023-01-12T20:13:18.323Z,62.54
2023-01-12T20:15:53.419Z,62.39
2023-01-12T20:18:22.377Z,62.16
2023-01-12T20:21:02.754Z,62.35
2023-01-12T20:23:35.699Z,62.28
2023-01-12T20:29:00.193Z,62.27
2023-01-12T20:31:30.555Z,63.57
2023-01-12T20:34:02.507Z,63.39
2023-01-12T20:36:30.670Z,62.78
2023-01-12T20:38:59.127Z,62.65
2023-01-12T20:41:29.597Z,63.35
2023-01-12T20:44:11.915Z,63.10
2023-01-12T20:46:47.507Z,63.28
2023-01-12T20:49:20.353Z,62.86
2023-01-12T20:51:53.949Z,63.02
2023-01-12T20:54:22.545Z,62.94
2023-01-12T20:56:50.747Z,63.27
2023-01-12T21:04:37.479Z,62.72
2023-01-12T21:07:09.747Z,63.27
2023-01-12T21:09:40.473Z,63.92
2023-01-12T21:12:18.814Z,63.13
2023-01-12T21:14:48.047Z,63.76
2023-01-12T21:17:21.373Z,63.34
2023-01-12T21:19:54.146Z,62.75
2023-01-12T21:22:27.422Z,62.92
2023-01-12T21:25:03.435Z,62.79
2023-01-12T21:27:35.402Z,62.94
2023-01-12T21:30:13.127Z,62.80
2023-01-12T21:32:43.546Z,62.81
2023-01-12T21:35:15.448Z,62.68
2023-01-12T21:37:45.819Z,62.75
2023-01-12T21:40:19.621Z,62.59
2023-01-12T21:43:10.702Z,62.43
2023-01-12T21:45:46.721Z,63.45
2023-01-12T21:48:17.942Z,63.10
2023-01-12T21:50:47.684Z,63.34
2023-01-12T21:53:22.375Z,63.78
2023-01-12T21:55:59.159Z,63.57
2023-01-12T21:58:31.898Z,63.87
2023-01-12T22:01:07.652Z,63.63
2023-01-12T22:03:41.433Z,63.61
2023-01-12T22:06:13.532Z,63.41
2023-01-12T22:08:42.069Z,63.68
2023-01-12T22:11:14.360Z,63.54
2023-01-12T22:13:44.164Z,64.02
2023-01-12T22:16:13.854Z,63.08
2023-01-12T22:18:46.587Z,63.62
2023-01-12T22:21:17.461Z,64.16
2023-01-12T22:23:47.106Z,63.87
2023-01-12T22:26:16.493Z,63.94
2023-01-12T22:28:50.644Z,63.78
2023-01-12T22:31:24.199Z,63.83
2023-01-12T22:33:55.870Z,61.74
2023-01-12T22:36:25.450Z,61.97
2023-01-12T22:38:53.343Z,63.59
2023-01-12T22:43:56.357Z,64.24
2023-01-12T22:46:26.526Z,65.40
2023-01-12T22:51:33.772Z,65.02
2023-01-12T22:54:05.331Z,65.09
2023-01-12T22:56:33.663Z,64.98
2023-01-12T22:59:01.236Z,64.69
2023-01-12T23:01:28.799Z,65.14
2023-01-12T23:03:58.392Z,65.37
2023-01-12T23:06:27.008Z,64.86
2023-01-12T23:08:56.966Z,64.43
2023-01-12T23:11:26.629Z,64.47
2023-01-12T23:13:55.191Z,64.46
2023-01-12T23:16:24.635Z,64.33
2023-01-12T23:18:55.551Z,64.82
2023-01-12T23:21:27.661Z,63.83
2023-01-12T23:23:57.649Z,63.96
2023-01-12T23:26:31.314Z,64.06
2023-01-12T23:29:00.742Z,64.47
2023-01-12T23:31:33.199Z,64.28
2023-01-12T23:34:01.811Z,64.58
2023-01-12T23:36:31.863Z,64.20
2023-01-12T23:39:01.603Z,63.42
2023-01-12T23:41:32.618Z,63.96
2023-01-12T23:44:02.788Z,63.95
2023-01-12T23:46:34.064Z,64.08
2023-01-12T23:49:02.758Z,63.79
2023-01-12T23:51:32.226Z,63.85
2023-01-12T23:54:01.311Z,63.68
2023-01-12T23:56:32.252Z,63.87
2023-01-12T23:59:00.771Z,64.07
